createdAt,value
2018-07-19T00:01:39.597Z,3.77
2018-07-19T00:04:11.680Z,3.60
2018-07-19T00:06:43.772Z,3.10
2018-07-19T00:09:15.896Z,3.33
2018-07-19T00:11:47.938Z,3.67
2018-07-19T00:14:19.997Z,3.40
2018-07-19T00:16:52.087Z,3.60
2018-07-19T00:19:24.149Z,3.33
2018-07-19T00:21:56.226Z,3.60
2018-07-19T00:24:28.255Z,3.77
2018-07-19T00:27:00.314Z,3.30
2018-07-19T00:29:32.392Z,3.97
2018-07-19T00:32:04.426Z,3.70
2018-07-19T00:34:36.464Z,3.23
2018-07-19T00:37:08.515Z,3.07
2018-07-19T00:39:40.562Z,4.20
2018-07-19T00:42:12.634Z,3.43
2018-07-19T00:44:44.696Z,3.90
2018-07-19T00:47:16.786Z,3.47
2018-07-19T00:49:48.856Z,3.37
2018-07-19T00:52:20.943Z,3.17
2018-07-19T00:54:53.023Z,4.00
2018-07-19T00:57:25.093Z,3.93
2018-07-19T00:59:57.136Z,3.97
2018-07-19T01:02:29.179Z,3.33
2018-07-19T01:05:01.263Z,3.93
2018-07-19T01:07:33.307Z,3.90
2018-07-19T01:10:05.371Z,3.57
2018-07-19T01:12:37.415Z,3.70
2018-07-19T01:15:09.521Z,3.83
2018-07-19T01:17:41.588Z,3.67
2018-07-19T01:20:13.685Z,4.13
2018-07-19T01:22:45.775Z,3.33
2018-07-19T01:25:17.850Z,3.67
2018-07-19T01:27:49.927Z,4.23
2018-07-19T01:30:22.015Z,4.00
2018-07-19T01:32:54.095Z,3.77
2018-07-19T01:35:26.211Z,3.77
2018-07-19T01:37:58.282Z,3.80
2018-07-19T01:40:30.348Z,4.10
2018-07-19T01:43:02.402Z,4.53
2018-07-19T01:45:34.447Z,3.93
2018-07-19T01:48:06.496Z,3.70
2018-07-19T01:50:38.608Z,3.50
2018-07-19T01:53:10.701Z,4.30
2018-07-19T01:55:42.723Z,3.77
2018-07-19T01:58:14.787Z,4.20
2018-07-19T02:00:46.853Z,4.20
2018-07-19T02:03:18.879Z,3.73
2018-07-19T02:05:50.972Z,3.70
2018-07-19T02:08:23.073Z,4.23
2018-07-19T02:10:56.148Z,3.67
2018-07-19T02:13:28.208Z,3.60
2018-07-19T02:16:00.289Z,3.83
2018-07-19T02:18:32.343Z,3.90
2018-07-19T02:21:04.448Z,3.87
2018-07-19T02:23:36.497Z,4.60
2018-07-19T02:26:08.532Z,4.20
2018-07-19T02:28:40.607Z,3.50
2018-07-19T02:31:12.615Z,3.80
2018-07-19T02:33:44.644Z,3.60
2018-07-19T02:36:16.698Z,3.60
2018-07-19T02:38:48.729Z,4.20
2018-07-19T02:41:20.817Z,3.00
2018-07-19T02:43:52.944Z,3.83
2018-07-19T02:46:24.949Z,3.83
2018-07-19T02:48:56.984Z,3.57
2018-07-19T02:51:29.190Z,3.37
2018-07-19T02:54:01.287Z,3.23
2018-07-19T02:56:33.351Z,3.87
2018-07-19T02:59:05.437Z,3.30
2018-07-19T03:01:37.514Z,3.83
2018-07-19T03:04:09.558Z,3.50
2018-07-19T03:06:41.642Z,3.77
2018-07-19T03:09:13.741Z,3.30
2018-07-19T03:11:45.870Z,3.93
2018-07-19T03:14:18.000Z,4.30
2018-07-19T03:16:50.114Z,4.23
2018-07-19T03:19:22.173Z,3.73
2018-07-19T03:21:54.266Z,4.30
2018-07-19T03:24:26.378Z,3.97
2018-07-19T03:26:58.447Z,4.43
2018-07-19T03:29:30.590Z,3.80
2018-07-19T03:32:02.684Z,3.90
2018-07-19T03:34:34.799Z,4.00
2018-07-19T03:37:06.938Z,4.00
2018-07-19T03:39:38.995Z,4.20
2018-07-19T03:42:11.141Z,3.73
2018-07-19T03:44:43.216Z,4.20
2018-07-19T03:47:17.347Z,3.93
2018-07-19T03:49:49.517Z,3.73
2018-07-19T03:52:21.658Z,3.87
2018-07-19T03:54:53.791Z,3.30
2018-07-19T03:57:25.913Z,4.07
2018-07-19T03:59:57.990Z,3.80
2018-07-19T04:02:30.084Z,4.27
2018-07-19T04:05:02.268Z,4.00
2018-07-19T04:07:34.375Z,3.60
2018-07-19T04:10:06.409Z,3.60
2018-07-19T04:12:38.472Z,4.07
2018-07-19T04:15:10.548Z,4.20
2018-07-19T04:17:50.050Z,3.83
2018-07-19T04:20:23.518Z,4.13
2018-07-19T04:22:55.923Z,4.50
2018-07-19T04:25:28.141Z,4.10
2018-07-19T04:28:00.243Z,4.57
2018-07-19T04:30:32.280Z,3.90
2018-07-19T04:33:04.365Z,4.23
2018-07-19T04:35:36.443Z,4.37
2018-07-19T04:38:08.533Z,4.20
2018-07-19T04:40:40.576Z,3.80
2018-07-19T04:43:12.647Z,3.87
2018-07-19T04:45:44.721Z,4.03
2018-07-19T04:48:16.819Z,4.27
2018-07-19T04:50:48.933Z,4.30
2018-07-19T04:53:21.019Z,4.43
2018-07-19T04:55:53.113Z,4.23
2018-07-19T04:58:25.282Z,4.43
2018-07-19T05:00:57.340Z,4.20
2018-07-19T05:03:29.464Z,4.23
2018-07-19T05:06:01.544Z,4.47
2018-07-19T05:08:33.671Z,4.63
2018-07-19T05:11:05.775Z,4.50
2018-07-19T05:13:37.898Z,4.43
2018-07-19T05:16:10.045Z,4.23
2018-07-19T05:18:42.164Z,4.27
2018-07-19T05:21:14.309Z,4.10
2018-07-19T05:23:46.477Z,4.20
2018-07-19T05:26:18.683Z,3.97
2018-07-19T05:28:50.800Z,4.20
2018-07-19T05:31:23.013Z,4.40
2018-07-19T05:33:55.595Z,4.30
2018-07-19T05:36:27.725Z,3.90
2018-07-19T05:38:59.819Z,3.93
2018-07-19T05:41:31.935Z,4.20
2018-07-19T05:44:04.560Z,3.87
2018-07-19T05:46:36.736Z,4.13
2018-07-19T05:49:08.891Z,4.20
2018-07-19T05:51:41.006Z,4.20
2018-07-19T05:54:13.182Z,4.20
2018-07-19T05:56:45.302Z,3.80
2018-07-19T05:59:17.438Z,3.60
2018-07-19T06:01:49.539Z,4.27
2018-07-19T06:04:21.686Z,3.30
2018-07-19T06:06:53.803Z,3.80
2018-07-19T06:09:25.911Z,3.93
2018-07-19T06:11:57.959Z,3.80
2018-07-19T06:14:34.281Z,3.63
2018-07-19T06:17:06.638Z,3.20
2018-07-19T06:19:38.711Z,3.47
2018-07-19T06:22:10.792Z,3.50
2018-07-19T06:24:42.902Z,3.10
2018-07-19T06:27:15.009Z,3.33
2018-07-19T06:29:47.153Z,3.60
2018-07-19T06:32:19.320Z,3.13
2018-07-19T06:34:51.799Z,3.20
2018-07-19T06:37:23.899Z,3.63
2018-07-19T06:39:56.057Z,2.90
2018-07-19T06:42:28.267Z,3.60
2018-07-19T06:45:00.386Z,3.40
2018-07-19T06:47:32.474Z,3.87
2018-07-19T06:50:04.560Z,3.30
2018-07-19T06:52:36.688Z,3.43
2018-07-19T06:55:08.765Z,3.50
2018-07-19T06:57:40.800Z,3.07
2018-07-19T07:02:51.581Z,3.50
2018-07-19T07:05:23.642Z,3.00
2018-07-19T07:07:55.758Z,4.27
2018-07-19T07:10:27.884Z,3.00
2018-07-19T07:13:00.002Z,3.00
2018-07-19T07:15:32.055Z,3.10
2018-07-19T07:18:04.425Z,2.93
2018-07-19T07:20:39.592Z,3.00
2018-07-19T07:23:11.711Z,2.83
2018-07-19T07:25:49.343Z,3.10
2018-07-19T07:28:22.832Z,2.90
2018-07-19T07:30:54.903Z,2.70
2018-07-19T07:33:27.020Z,2.67
2018-07-19T07:35:59.175Z,2.60
2018-07-19T07:38:31.288Z,2.80
2018-07-19T07:41:03.466Z,2.43
2018-07-19T07:43:35.567Z,3.03
2018-07-19T07:46:07.761Z,2.87
2018-07-19T07:48:39.923Z,2.33
2018-07-19T07:51:12.080Z,2.77
2018-07-19T07:53:44.186Z,2.43
2018-07-19T07:56:17.383Z,2.80
2018-07-19T07:58:49.543Z,2.40
2018-07-19T08:01:21.727Z,2.30
2018-07-19T08:03:54.415Z,2.90
2018-07-19T08:06:27.456Z,2.30
2018-07-19T08:08:59.711Z,2.30
2018-07-19T08:11:31.775Z,2.47
2018-07-19T08:14:03.926Z,2.00
2018-07-19T08:16:36.073Z,3.07
2018-07-19T08:19:08.216Z,2.30
2018-07-19T08:21:40.323Z,2.30
2018-07-19T08:24:12.433Z,2.13
2018-07-19T08:26:44.511Z,2.63
2018-07-19T08:29:16.686Z,2.63
2018-07-19T08:31:48.778Z,2.30
2018-07-19T08:34:20.842Z,2.50
2018-07-19T08:36:52.905Z,2.20
2018-07-19T08:39:24.988Z,2.27
2018-07-19T08:41:57.148Z,2.73
2018-07-19T08:44:29.219Z,2.67
2018-07-19T08:47:01.294Z,2.53
2018-07-19T08:49:33.879Z,2.60
2018-07-19T08:52:05.990Z,2.30
2018-07-19T08:54:38.124Z,2.63
2018-07-19T08:57:10.281Z,2.90
2018-07-19T08:59:42.401Z,2.30
2018-07-19T09:02:14.533Z,2.33
2018-07-19T09:04:46.665Z,2.13
2018-07-19T09:07:18.691Z,2.23
2018-07-19T09:09:51.056Z,2.10
2018-07-19T09:12:23.213Z,2.33
2018-07-19T09:14:55.348Z,2.53
2018-07-19T09:17:27.431Z,2.53
2018-07-19T09:19:59.520Z,1.93
2018-07-19T09:22:31.657Z,2.50
2018-07-19T09:25:03.979Z,2.70
2018-07-19T09:27:36.118Z,2.83
2018-07-19T09:30:08.292Z,2.40
2018-07-19T09:32:40.458Z,2.60
2018-07-19T09:35:12.765Z,2.40
2018-07-19T09:37:44.973Z,2.80
2018-07-19T09:40:17.074Z,2.63
2018-07-19T09:42:49.201Z,3.90
2018-07-19T09:45:21.382Z,3.47
2018-07-19T09:47:53.492Z,2.63
2018-07-19T09:50:25.631Z,2.40
2018-07-19T09:52:57.759Z,2.60
2018-07-19T09:55:29.884Z,2.73
2018-07-19T09:58:01.982Z,2.43
2018-07-19T10:00:39.759Z,2.20
2018-07-19T10:03:11.857Z,2.40
2018-07-19T10:05:44.048Z,2.63
2018-07-19T10:08:16.083Z,2.40
2018-07-19T10:10:48.159Z,2.20
2018-07-19T10:13:20.271Z,2.23
2018-07-19T10:15:52.444Z,2.20
2018-07-19T10:18:24.587Z,2.60
2018-07-19T10:20:56.739Z,2.47
2018-07-19T10:23:29.094Z,2.30
2018-07-19T10:26:01.919Z,2.50
2018-07-19T10:28:34.064Z,2.30
2018-07-19T10:31:06.120Z,2.27
2018-07-19T10:33:38.238Z,2.57
2018-07-19T10:36:11.505Z,2.53
2018-07-19T10:38:43.610Z,2.27
2018-07-19T10:41:15.695Z,3.10
2018-07-19T10:43:47.839Z,2.43
2018-07-19T10:46:20.364Z,2.00
2018-07-19T10:48:52.555Z,2.10
2018-07-19T10:51:24.928Z,2.50
2018-07-19T10:53:56.998Z,2.60
2018-07-19T10:56:29.053Z,2.23
2018-07-19T10:59:01.318Z,2.60
2018-07-19T11:01:33.404Z,2.30
2018-07-19T11:04:05.657Z,2.47
2018-07-19T11:06:38.026Z,2.57
2018-07-19T11:09:10.267Z,2.57
2018-07-19T11:11:42.443Z,2.60
2018-07-19T11:14:14.527Z,2.20
2018-07-19T11:16:46.630Z,2.50
2018-07-19T11:19:18.892Z,2.23
2018-07-19T11:21:51.236Z,2.40
2018-07-19T11:24:23.352Z,2.33
2018-07-19T11:26:55.502Z,2.20
2018-07-19T11:29:27.632Z,2.47
2018-07-19T11:31:59.753Z,2.00
2018-07-19T11:34:31.827Z,2.67
2018-07-19T11:37:04.034Z,2.70
2018-07-19T11:39:36.145Z,2.40
2018-07-19T11:42:10.317Z,2.30
2018-07-19T11:44:42.692Z,2.60
2018-07-19T11:47:14.783Z,2.57
2018-07-19T11:49:46.950Z,2.60
2018-07-19T11:52:19.040Z,2.43
2018-07-19T11:54:51.172Z,2.10
2018-07-19T11:57:23.627Z,2.67
2018-07-19T11:59:55.699Z,2.70
2018-07-19T12:02:27.792Z,2.77
2018-07-19T12:04:59.883Z,2.50
2018-07-19T12:07:31.968Z,2.30
2018-07-19T12:10:04.221Z,2.10
2018-07-19T12:12:36.306Z,2.80
2018-07-19T12:15:08.375Z,2.40
2018-07-19T12:17:40.652Z,2.50
2018-07-19T12:20:12.722Z,2.83
2018-07-19T12:22:44.818Z,2.57
2018-07-19T12:25:16.915Z,3.10
2018-07-19T12:27:48.995Z,2.80
2018-07-19T12:30:21.054Z,2.07
2018-07-19T12:32:53.154Z,2.50
2018-07-19T12:35:25.154Z,2.50
2018-07-19T12:37:57.203Z,2.80
2018-07-19T12:40:29.193Z,2.50
2018-07-19T12:43:01.267Z,2.30
2018-07-19T12:45:33.390Z,2.60
2018-07-19T12:48:05.487Z,2.47
2018-07-19T12:50:37.514Z,2.00
2018-07-19T12:53:09.600Z,2.50
2018-07-19T12:55:41.639Z,3.00
2018-07-19T12:58:13.717Z,2.40
2018-07-19T13:00:45.800Z,2.40
2018-07-19T13:03:17.851Z,2.50
2018-07-19T13:05:49.950Z,2.60
2018-07-19T13:08:22.010Z,2.80
2018-07-19T13:10:54.061Z,2.20
2018-07-19T13:13:26.146Z,2.50
2018-07-19T13:15:58.232Z,2.33
2018-07-19T13:18:30.333Z,2.13
2018-07-19T13:21:02.429Z,2.60
2018-07-19T13:23:34.494Z,2.77
2018-07-19T13:26:06.583Z,2.50
2018-07-19T13:28:38.624Z,2.23
2018-07-19T13:31:10.750Z,1.97
2018-07-19T13:33:42.855Z,2.20
2018-07-19T13:36:14.944Z,2.20
2018-07-19T13:38:47.002Z,2.30
2018-07-19T13:41:19.063Z,2.13
2018-07-19T13:43:51.139Z,2.53
2018-07-19T13:46:23.192Z,2.07
2018-07-19T13:48:55.304Z,2.63
2018-07-19T13:51:27.789Z,2.30
2018-07-19T13:56:58.199Z,2.40
2018-07-19T13:59:30.278Z,2.50
2018-07-19T14:02:02.344Z,2.33
2018-07-19T14:04:35.200Z,2.20
2018-07-19T14:07:10.037Z,2.50
2018-07-19T14:09:42.170Z,2.23
2018-07-19T14:12:14.284Z,3.10
2018-07-19T14:14:46.479Z,2.43
2018-07-19T14:17:18.568Z,2.40
2018-07-19T14:19:50.667Z,2.37
2018-07-19T14:22:22.733Z,2.50
2018-07-19T14:24:54.915Z,2.23
2018-07-19T14:27:27.011Z,2.40
2018-07-19T14:29:59.110Z,1.83
2018-07-19T14:32:31.242Z,2.37
2018-07-19T14:35:03.596Z,2.33
2018-07-19T14:37:35.714Z,2.40
2018-07-19T14:40:07.868Z,2.33
2018-07-19T14:42:39.943Z,2.20
2018-07-19T14:45:12.036Z,2.10
2018-07-19T14:47:44.122Z,2.40
2018-07-19T14:50:16.295Z,2.43
2018-07-19T14:52:48.410Z,2.77
2018-07-19T14:55:20.522Z,2.40
2018-07-19T14:57:52.613Z,2.40
2018-07-19T15:00:24.755Z,2.33
2018-07-19T15:02:56.849Z,2.40
2018-07-19T15:05:28.988Z,2.20
2018-07-19T15:08:01.071Z,2.77
2018-07-19T15:10:33.146Z,2.57
2018-07-19T15:13:05.250Z,2.63
2018-07-19T15:15:37.368Z,2.30
2018-07-19T15:18:09.492Z,2.20
2018-07-19T15:20:41.601Z,2.27
2018-07-19T15:23:13.754Z,2.43
2018-07-19T15:25:45.852Z,1.87
2018-07-19T15:28:17.947Z,2.17
2018-07-19T15:30:50.120Z,2.63
2018-07-19T15:33:22.203Z,2.37
2018-07-19T15:35:54.642Z,2.50
2018-07-19T15:38:26.712Z,2.20
2018-07-19T15:40:58.823Z,2.20
2018-07-19T15:43:30.859Z,2.10
2018-07-19T15:46:02.982Z,2.30
2018-07-19T15:48:35.076Z,2.10
2018-07-19T15:51:07.109Z,2.07
2018-07-19T15:53:39.132Z,2.10
2018-07-19T15:56:11.213Z,2.13
2018-07-19T15:58:43.277Z,1.93
2018-07-19T16:01:15.314Z,2.20
2018-07-19T16:03:47.395Z,2.40
2018-07-19T16:06:19.476Z,2.53
2018-07-19T16:08:51.553Z,2.40
2018-07-19T16:11:23.603Z,2.43
2018-07-19T16:13:55.796Z,2.60
2018-07-19T16:16:27.851Z,2.70
2018-07-19T16:18:59.867Z,2.43
2018-07-19T16:21:32.059Z,2.20
2018-07-19T16:24:04.120Z,2.73
2018-07-19T16:26:37.161Z,2.67
2018-07-19T16:29:09.227Z,2.43
2018-07-19T16:31:41.309Z,2.40
2018-07-19T16:34:14.720Z,2.33
2018-07-19T16:36:46.904Z,2.07
2018-07-19T16:39:18.927Z,2.43
2018-07-19T16:41:51.006Z,2.70
2018-07-19T16:44:23.104Z,2.90
2018-07-19T16:46:55.229Z,3.00
2018-07-19T16:49:27.275Z,2.83
2018-07-19T16:51:59.370Z,2.83
2018-07-19T16:54:31.382Z,3.00
2018-07-19T16:57:03.450Z,2.10
2018-07-19T16:59:35.529Z,2.73
2018-07-19T17:02:07.850Z,2.60
2018-07-19T17:04:39.931Z,2.67
2018-07-19T17:07:11.985Z,2.50
2018-07-19T17:09:44.540Z,3.07
2018-07-19T17:12:16.661Z,2.60
2018-07-19T17:14:48.764Z,2.80
2018-07-19T17:17:20.907Z,2.63
2018-07-19T17:19:53.751Z,3.00
2018-07-19T17:22:25.847Z,2.83
2018-07-19T17:24:57.947Z,2.50
2018-07-19T17:27:30.050Z,2.97
2018-07-19T17:30:02.175Z,3.10
2018-07-19T17:32:34.311Z,2.77
2018-07-19T17:35:06.645Z,3.20
2018-07-19T17:37:38.816Z,3.30
2018-07-19T17:40:11.333Z,3.47
2018-07-19T17:42:44.278Z,3.10
2018-07-19T17:45:16.380Z,3.40
2018-07-19T17:47:48.511Z,3.03
2018-07-19T17:50:20.645Z,3.00
2018-07-19T17:52:52.750Z,2.73
2018-07-19T17:55:24.971Z,2.90
2018-07-19T17:57:57.073Z,3.10
2018-07-19T18:00:29.192Z,3.13
2018-07-19T18:03:01.314Z,2.80
2018-07-19T18:05:33.522Z,2.93
2018-07-19T18:08:05.680Z,3.10
2018-07-19T18:10:37.822Z,3.10
2018-07-19T18:13:11.322Z,2.87
2018-07-19T18:15:43.374Z,2.67
2018-07-19T18:18:15.475Z,2.90
2018-07-19T18:20:47.548Z,3.17
2018-07-19T18:23:19.615Z,3.10
2018-07-19T18:25:51.703Z,2.87
2018-07-19T18:28:23.746Z,2.77
2018-07-19T18:30:55.764Z,3.20
2018-07-19T18:33:27.819Z,3.40
2018-07-19T18:35:59.965Z,3.60
2018-07-19T18:38:32.021Z,3.00
2018-07-19T18:41:04.053Z,2.83
2018-07-19T18:43:36.127Z,3.10
2018-07-19T18:46:08.185Z,3.67
2018-07-19T18:48:40.250Z,3.27
2018-07-19T18:51:12.379Z,3.00
2018-07-19T18:53:44.455Z,2.83
2018-07-19T18:56:16.499Z,3.03
2018-07-19T18:58:48.575Z,3.83
2018-07-19T19:01:20.692Z,3.70
2018-07-19T19:03:52.769Z,3.80
2018-07-19T19:06:24.817Z,3.00
2018-07-19T19:08:57.096Z,3.40
2018-07-19T19:11:29.208Z,3.40
2018-07-19T19:14:01.381Z,3.87
2018-07-19T19:16:33.517Z,3.07
2018-07-19T19:19:05.648Z,3.60
2018-07-19T19:21:37.792Z,2.83
2018-07-19T19:24:09.963Z,3.60
2018-07-19T19:26:42.060Z,3.47
2018-07-19T19:29:14.199Z,3.37
2018-07-19T19:31:46.327Z,3.23
2018-07-19T19:34:18.549Z,3.77
2018-07-19T19:36:51.445Z,3.40
2018-07-19T19:39:24.202Z,3.50
2018-07-19T19:41:56.286Z,3.07
2018-07-19T19:44:28.518Z,3.80
2018-07-19T19:47:00.648Z,3.80
2018-07-19T19:49:32.812Z,3.50
2018-07-19T19:52:04.931Z,3.27
2018-07-19T19:54:37.114Z,3.43
2018-07-19T19:57:09.272Z,3.40
2018-07-19T19:59:41.389Z,3.70
2018-07-19T20:02:13.477Z,3.27
2018-07-19T20:04:45.596Z,3.80
2018-07-19T20:07:17.689Z,3.70
2018-07-19T20:09:49.749Z,3.20
2018-07-19T20:12:21.824Z,3.80
2018-07-19T20:14:53.942Z,3.10
2018-07-19T20:17:25.979Z,3.63
2018-07-19T20:19:58.054Z,3.73
2018-07-19T20:22:30.139Z,3.80
2018-07-19T20:25:02.220Z,3.30
2018-07-19T20:27:34.259Z,3.70
2018-07-19T20:30:07.344Z,3.57
2018-07-19T20:32:39.403Z,3.47
2018-07-19T20:35:11.452Z,3.87
2018-07-19T20:37:43.518Z,3.87
2018-07-19T20:40:15.550Z,3.80
2018-07-19T20:42:47.593Z,3.50
2018-07-19T20:45:19.711Z,4.10
2018-07-19T20:47:51.776Z,4.40
2018-07-19T20:50:24.735Z,3.70
2018-07-19T20:52:56.766Z,3.50
2018-07-19T20:55:28.816Z,4.17
2018-07-19T20:58:00.896Z,3.37
2018-07-19T21:00:32.993Z,4.20
2018-07-19T21:03:05.352Z,4.10
2018-07-19T21:05:37.403Z,3.70
2018-07-19T21:08:09.477Z,4.20
2018-07-19T21:10:41.637Z,4.20
2018-07-19T21:13:13.701Z,3.80
2018-07-19T21:15:45.745Z,4.07
2018-07-19T21:18:17.829Z,3.50
2018-07-19T21:20:49.852Z,3.80
2018-07-19T21:23:21.911Z,4.30
2018-07-19T21:25:53.963Z,4.57
2018-07-19T21:28:26.048Z,4.77
2018-07-19T21:30:58.357Z,4.13
2018-07-19T21:33:30.360Z,4.50
2018-07-19T21:36:02.389Z,3.67
2018-07-19T21:38:34.443Z,3.87
2018-07-19T21:41:07.367Z,4.50
2018-07-19T21:43:39.412Z,4.40
2018-07-19T21:46:11.479Z,3.53
2018-07-19T21:48:43.564Z,3.63
2018-07-19T21:51:15.700Z,3.90
2018-07-19T21:53:47.713Z,4.70
2018-07-19T21:56:19.785Z,4.97
2018-07-19T21:58:51.872Z,4.00
2018-07-19T22:01:23.967Z,3.90
2018-07-19T22:03:55.987Z,4.00
2018-07-19T22:06:28.053Z,3.80
2018-07-19T22:09:00.118Z,4.40
2018-07-19T22:11:32.200Z,3.70
2018-07-19T22:14:04.773Z,4.07
2018-07-19T22:16:38.175Z,4.23
2018-07-19T22:19:10.216Z,3.93
2018-07-19T22:21:42.287Z,3.97
2018-07-19T22:24:14.343Z,3.77
2018-07-19T22:26:46.902Z,3.90
2018-07-19T22:29:18.997Z,4.03
2018-07-19T22:31:51.071Z,4.10
2018-07-19T22:34:23.132Z,3.90
2018-07-19T22:36:55.232Z,3.50
2018-07-19T22:39:27.296Z,3.73
2018-07-19T22:41:59.414Z,4.10
2018-07-19T22:44:31.474Z,4.10
2018-07-19T22:47:03.556Z,4.10
2018-07-19T22:49:35.607Z,4.37
2018-07-19T22:52:07.692Z,4.13
2018-07-19T22:54:39.766Z,3.87
2018-07-19T22:57:11.849Z,3.20
2018-07-19T22:59:43.871Z,3.87
2018-07-19T23:02:15.943Z,4.93
2018-07-19T23:04:48.002Z,4.20
2018-07-19T23:07:20.064Z,3.87
2018-07-19T23:09:52.200Z,4.67
2018-07-19T23:12:24.295Z,4.13
2018-07-19T23:14:56.467Z,3.93
2018-07-19T23:17:28.674Z,4.00
2018-07-19T23:20:00.792Z,4.10
2018-07-19T23:22:32.882Z,4.07
2018-07-19T23:25:05.061Z,4.00
2018-07-19T23:27:37.241Z,4.43
2018-07-19T23:30:09.370Z,4.20
2018-07-19T23:32:41.540Z,3.80
2018-07-19T23:35:13.715Z,4.57
2018-07-19T23:37:47.767Z,4.27
2018-07-19T23:40:24.308Z,3.87
2018-07-19T23:43:02.260Z,4.50
2018-07-19T23:45:40.543Z,3.90
2018-07-19T23:48:12.669Z,3.90
2018-07-19T23:50:44.832Z,4.10
2018-07-19T23:53:16.900Z,4.10
2018-07-19T23:55:48.975Z,4.30
2018-07-19T23:58:21.099Z,3.83
